Main page
METAR-TAF:

METAR-TAF

Airports :

Burgos Airport

Burgos, Spain

latitude: 42-22N, longitude: 003-38W, elevation: 894 m

Current weather observation

The report was made 35 minutes ago, at 13:00 UTC
Wind 5 kt from the North/Northeast
Temperature 14°C
Humidity 77%
Pressure 1019 hPa
Visibility 10 km or more
Scattered clouds at a height of 3400 ft
Scattered clouds at a height of 4400 ft

METAR: LEBG 151300Z 03005KT 9999 SCT034 SCT044 14/10 Q1019

Time: 14:35 (13:35 UTC)

Forecast

The report was made 2 hours and 35 minutes ago, at 11:00 UTC
Forecast valid from 15 at 12 UTC to 15 at 21 UTC
Wind 6 kt from the South
Visibility 10 km or more
Scattered clouds at a height of 5000 ft

TAF: LEBG 151100Z 1512/1521 18006KT 9999 SCT050

Weather observations and forecasts of more than 4000 airports (METAR and TAF reports).

The available stations are represented by yellow and red dots on the map.

Hover mouse over dot to see the name of the station.

Then click to see weather observations and forecasts.

To change the map : click on the green buttons with a black cross to zoom in, on the green button with a dash to zoom out, or on the green arrows for adjacent maps.


METAR-TAF: